Aérodrome :
LOGIN :

S'inscrire | Disclaimer

   EN    FR    IT 

 










Légende :    VFR   VFR Marginal   IFR   IFR Intensif   IFR Très Intensif
Visi : 
Plafond : 
>= 8 km
>= 3000ft
5 à 8 km
1000 à 3000 ft
1500m à 5 km
500 à 1000 ft
800 à 1500m
200 à 500 ft
< 800m
< 200 ft
Symboles :   Orages  Brouillard  Fortes neiges  Fortes précipitations  Vent > 20 kt
SIGMETs :   Divers  Orages  Givrage  Turbulence  Onde Orograph.  Cendres Volcan.







- Altitude de l'aérodrome : 33 ft
- Code IATA : MHZ


EGUN - RAF Mildenhall

DERNIER METAR :
  • 191256Z AUTO 31006KT 9999 CLR 07/03 A3021 RMK AO2 SLP234 T00730028 .

METARs EXPIRÉS :
  • 191156Z AUTO 31008KT 9999 CLR 06/03 A3021 RMK AO2 SLP234 T00610026 10061 21020 51004 $
  • 191056Z AUTO 28007KT 9999 CLR 05/03 A3020 RMK AO2 SLP230 T00500025 .

TAF TAF EGUN
Valide du 19 à 12h jusqu'au 20 à 18h UTC


191202Z 1912/2018 31009KT 9999 SKC QNH3006INS
BECMG 2003/2004 20006KT 8000 -SHRA BKN030 OVC050 620505 QNH2994INS
BECMG 2007/2008 27012G20KT 8000 -SHRA BKN010 OVC015 620556 QNH2982INS
BECMG 2015/2016 27010G15KT 8000 -SHRA BKN010 OVC015 620605 QNH2984INS TX11/2012Z TN00/1921Z
Pas de NOTAMs connus pour ce terrain.



MET'MAP, la Météo Aéronautique d'un coup d'oeil ! - Copyright ORBIFLY Décembre 2007 - Disclaimer

ORBIFLY MET'MAP TEAM :

Programmation & Développement : Alexandra Zaïnal
Conception & Développement : Baudouin d'Aumeries
Co-Programmation & Développement : Marc-Olivier Méhu
Soutien technique & logistique : Manuel Goepfert

Contact : metmap@orbifly.com




SOURCES & CREDITS :

   NOAA